Time;durP1;ratioP1;P1;durP2;ratioP2;P2;SDS_P1;SDS_P2;PMS_P1;PMS_P2;Temp;Humidity;BMP_temperature;BMP_pressure;BME280_temperature;BME280_humidity;BME280_pressure;Samples;Min_cycle;Max_cycle;Signal;HPM_P1;HPM_P2
2022/01/12 00:01:45;;;;;;;215.45;69.22;;;-4.20;95.50;;;;;;4997042;28;20028;-72
2022/01/12 00:04:11;;;;;;;206.80;67.80;;;-4.20;95.90;;;;;;5014632;28;20022;-71
2022/01/12 00:06:39;;;;;;;220.88;65.80;;;-4.20;96.20;;;;;;4997071;28;20034;-72
2022/01/12 00:09:07;;;;;;;234.27;69.03;;;-4.20;96.40;;;;;;5014382;28;20026;-71
2022/01/12 00:11:35;;;;;;;260.80;71.53;;;-4.10;96.80;;;;;;4996700;28;20018;-71
2022/01/12 00:14:03;;;;;;;213.57;65.97;;;-4.10;97.00;;;;;;4980795;28;20112;-72
2022/01/12 00:16:39;;;;;;;237.18;69.90;;;-4.10;97.10;;;;;;4997240;28;20040;-72
2022/01/12 00:19:07;;;;;;;250.98;68.25;;;-4.10;97.20;;;;;;5014385;28;20026;-72
2022/01/12 00:21:34;;;;;;;215.80;65.43;;;-4.10;97.30;;;;;;4996114;28;20402;-73
2022/01/12 00:24:01;;;;;;;190.30;64.78;;;-4.10;97.60;;;;;;5014182;28;20033;-71
2022/01/12 00:34:29;;;;;;;211.23;65.32;;;-4.00;97.50;;;;;;5014496;28;20057;-72
2022/01/12 00:36:57;;;;;;;229.48;64.22;;;-4.00;97.50;;;;;;4980317;28;20021;-71
2022/01/12 00:39:25;;;;;;;290.83;70.93;;;-4.00;97.40;;;;;;5014155;28;20408;-70
2022/01/12 00:41:53;;;;;;;242.02;63.05;;;-4.00;97.50;;;;;;4996329;28;20061;-70
2022/01/12 00:44:25;;;;;;;229.38;65.85;;;-4.00;97.40;;;;;;4996235;28;20021;-71
2022/01/12 00:46:53;;;;;;;224.45;67.57;;;-4.10;97.30;;;;;;5013924;28;20500;-72
2022/01/12 00:49:27;;;;;;;201.32;60.95;;;-4.10;97.40;;;;;;4980248;28;20124;-72
2022/01/12 00:51:55;;;;;;;229.45;67.97;;;-4.10;97.70;;;;;;5013776;28;20029;-70
2022/01/12 00:54:23;;;;;;;255.50;67.65;;;-4.20;97.50;;;;;;5013713;28;20108;-72
2022/01/12 00:56:50;;;;;;;228.88;65.00;;;-4.20;97.60;;;;;;4996485;28;20487;-71
2022/01/12 00:59:18;;;;;;;223.90;70.43;;;-4.20;97.70;;;;;;4996164;28;20030;-71
2022/01/12 01:01:46;;;;;;;212.43;67.80;;;-4.20;97.80;;;;;;4996163;28;20022;-72
2022/01/12 01:04:13;;;;;;;224.48;62.95;;;-4.20;97.90;;;;;;4995782;28;20546;-71
2022/01/12 01:06:40;;;;;;;244.63;69.30;;;-4.10;98.00;;;;;;4979914;28;20390;-72
2022/01/12 01:09:06;;;;;;;176.88;64.75;;;-4.10;97.90;;;;;;4996246;28;20456;-71
2022/01/12 01:11:35;;;;;;;213.50;67.07;;;-4.10;97.90;;;;;;5013315;28;20037;-70
2022/01/12 01:14:11;;;;;;;221.68;66.38;;;-4.10;97.90;;;;;;4996056;28;20435;-72
2022/01/12 01:27:29;;;;;;;223.88;68.30;;;-4.00;97.70;;;;;;5013821;28;20084;-71
2022/01/12 01:29:56;;;;;;;220.13;65.85;;;-4.00;97.70;;;;;;4995989;28;20048;-71
2022/01/12 01:32:25;;;;;;;261.85;68.15;;;-4.00;97.60;;;;;;5013719;28;20029;-71
2022/01/12 01:34:53;;;;;;;231.35;68.65;;;-4.00;97.50;;;;;;5013432;28;20022;-71
2022/01/12 01:37:21;;;;;;;267.90;67.28;;;-4.00;97.60;;;;;;5013523;28;20105;-71
2022/01/12 01:39:49;;;;;;;296.10;69.57;;;-4.00;97.80;;;;;;4995821;28;20030;-72
2022/01/12 01:42:20;;;;;;;229.10;63.15;;;-4.00;98.00;;;;;;5013192;28;20356;-71
2022/01/12 01:55:34;;;;;;;203.18;67.43;;;-4.00;98.00;;;;;;5013306;28;20029;-71
2022/01/12 01:58:00;;;;;;;218.65;67.07;;;-4.10;98.00;;;;;;4995626;28;20430;-72
2022/01/12 02:00:39;;;;;;;259.25;68.00;;;-4.10;98.20;;;;;;5013143;28;20037;-72
2022/01/12 02:03:07;;;;;;;212.60;65.30;;;-4.10;98.30;;;;;;5013107;28;20036;-72
2022/01/12 02:05:34;;;;;;;228.77;68.93;;;-4.10;98.30;;;;;;5013315;28;20034;-71
2022/01/12 02:08:01;;;;;;;237.25;72.72;;;-4.00;98.40;;;;;;4995548;28;20026;-71
2022/01/12 02:10:29;;;;;;;238.52;68.47;;;-4.00;98.40;;;;;;4995824;28;20081;-72
2022/01/12 02:12:56;;;;;;;213.55;64.28;;;-4.00;98.40;;;;;;4995551;28;20029;-71
2022/01/12 02:15:25;;;;;;;216.98;63.85;;;-3.90;98.40;;;;;;4995537;28;20022;-71
2022/01/12 02:40:40;;;;;;;237.50;63.78;;;-3.90;98.30;;;;;;5016203;28;20114;-71
2022/01/12 02:43:18;;;;;;;226.82;64.32;;;-3.90;98.50;;;;;;5016483;28;20030;-71
2022/01/12 02:53:54;;;;;;;276.83;72.57;;;-3.90;98.40;;;;;;4998804;28;20134;-71
2022/01/12 02:56:31;;;;;;;280.92;76.13;;;-3.90;98.50;;;;;;4998338;28;20083;-72
2022/01/12 02:58:59;;;;;;;212.23;67.85;;;-3.90;98.40;;;;;;4998203;28;20378;-70
2022/01/12 03:04:09;;;;;;;234.95;66.65;;;-3.90;98.50;;;;;;5016020;28;20034;-72
2022/01/12 03:06:45;;;;;;;179.32;61.92;;;-3.90;98.60;;;;;;5015757;28;20028;-70
2022/01/12 03:09:13;;;;;;;246.05;67.55;;;-3.90;98.50;;;;;;4998002;28;20386;-71
2022/01/12 03:11:40;;;;;;;234.73;65.20;;;-3.90;98.50;;;;;;5015498;28;20496;-72
2022/01/12 03:14:07;;;;;;;223.77;63.03;;;-3.90;98.40;;;;;;5015469;28;20029;-72
2022/01/12 03:16:35;;;;;;;186.90;60.60;;;-3.90;98.40;;;;;;5015625;28;20041;-72
2022/01/12 03:19:03;;;;;;;231.82;64.22;;;-3.90;98.60;;;;;;5015737;28;20010;-71
2022/01/12 03:21:33;;;;;;;244.50;64.97;;;-3.90;98.90;;;;;;4998047;28;20056;-71
2022/01/12 03:24:00;;;;;;;192.70;61.28;;;-3.90;99.00;;;;;;4997964;28;20117;-72
2022/01/12 03:26:29;;;;;;;182.95;62.97;;;-3.80;99.00;;;;;;4997825;28;20045;-72
2022/01/12 03:28:57;;;;;;;193.73;62.15;;;-3.80;99.00;;;;;;4981787;28;20026;-71
2022/01/12 03:31:28;;;;;;;206.50;62.88;;;-3.90;98.90;;;;;;5015640;28;20107;-71
2022/01/12 03:34:05;;;;;;;200.98;64.13;;;-3.90;99.00;;;;;;4998350;28;20030;-71
2022/01/12 04:09:37;;;;;;;184.27;60.58;;;-4.00;98.70;;;;;;5014878;28;20423;-70
2022/01/12 04:12:04;;;;;;;193.35;65.10;;;-4.00;98.50;;;;;;4996799;28;20026;-71
2022/01/12 04:14:30;;;;;;;202.45;61.22;;;-4.00;98.40;;;;;;5014347;28;20022;-70
2022/01/12 04:16:58;;;;;;;181.38;61.05;;;-4.10;98.50;;;;;;5014442;28;20033;-71
2022/01/12 04:19:27;;;;;;;206.32;63.28;;;-4.00;98.80;;;;;;5014506;28;20050;-71
2022/01/12 04:21:55;;;;;;;203.35;62.25;;;-4.00;98.80;;;;;;5014327;28;20026;-71
2022/01/12 04:24:22;;;;;;;258.33;67.45;;;-4.00;98.40;;;;;;5014050;28;20042;-72
2022/01/12 04:26:49;;;;;;;200.95;62.90;;;-4.10;98.10;;;;;;5014191;28;20049;-72
2022/01/12 04:29:15;;;;;;;219.27;63.25;;;-4.10;98.00;;;;;;4996550;28;20463;-72
2022/01/12 04:31:43;;;;;;;222.00;64.70;;;-4.10;98.00;;;;;;5014134;28;20122;-69
2022/01/12 04:34:11;;;;;;;197.35;65.65;;;-4.20;98.00;;;;;;5014480;28;20034;-72
2022/01/12 04:36:38;;;;;;;208.70;64.75;;;-4.20;98.20;;;;;;5014132;28;20026;-72
2022/01/12 04:39:05;;;;;;;185.45;61.47;;;-4.20;98.10;;;;;;4995953;28;20463;-72
2022/01/12 04:41:34;;;;;;;216.00;61.53;;;-4.20;98.10;;;;;;5014052;28;20434;-71
2022/01/12 04:44:02;;;;;;;237.13;67.32;;;-4.20;98.40;;;;;;5013902;28;20028;-71
2022/01/12 04:46:39;;;;;;;222.75;60.78;;;-4.20;98.30;;;;;;5014108;28;20018;-71
2022/01/12 04:49:20;;;;;;;269.88;65.78;;;-4.20;98.50;;;;;;5014157;28;20466;-71
2022/01/12 04:51:47;;;;;;;227.40;65.10;;;-4.20;98.70;;;;;;5014115;28;20549;-71
2022/01/12 04:54:12;;;;;;;204.80;64.43;;;-4.20;98.90;;;;;;4996383;28;20120;-71
2022/01/12 04:56:41;;;;;;;227.55;65.38;;;-4.20;99.00;;;;;;5014267;28;20049;-71
2022/01/12 04:59:09;;;;;;;193.85;62.00;;;-4.20;99.00;;;;;;4996067;28;20459;-71
2022/01/12 05:01:48;;;;;;;240.70;67.70;;;-4.20;99.00;;;;;;4996143;28;20018;-70
2022/01/12 05:07:25;;;;;;;235.82;64.43;;;-4.20;99.10;;;;;;5014471;28;20080;-70
2022/01/12 05:12:51;;;;;;;211.07;62.92;;;-4.20;98.70;;;;;;5013678;28;20026;-70
2022/01/12 05:15:27;;;;;;;222.68;68.93;;;-4.20;98.50;;;;;;5013769;28;20053;-69
2022/01/12 05:17:53;;;;;;;187.77;62.92;;;-4.30;98.40;;;;;;5013540;28;20015;-71
2022/01/12 05:20:21;;;;;;;214.07;70.20;;;-4.30;98.60;;;;;;4979907;28;20034;-71
2022/01/12 05:22:48;;;;;;;202.82;67.85;;;-4.30;98.50;;;;;;5012642;28;20029;-71
2022/01/12 05:25:19;;;;;;;233.63;70.35;;;-4.30;98.50;;;;;;4995409;28;20058;-70
2022/01/12 05:27:49;;;;;;;260.10;75.55;;;-4.30;98.30;;;;;;5013414;28;20110;-70
2022/01/12 05:30:17;;;;;;;268.75;72.50;;;-4.30;98.10;;;;;;5013599;28;20030;-71
2022/01/12 05:32:45;;;;;;;269.75;73.82;;;-4.40;97.90;;;;;;4995851;28;20061;-73
2022/01/12 05:35:16;;;;;;;265.52;74.78;;;-4.40;97.80;;;;;;4992929;28;20050;-71
2022/01/12 05:37:44;;;;;;;243.43;63.58;;;-4.50;97.70;;;;;;4993780;28;20491;-71
2022/01/12 05:40:14;;;;;;;259.50;65.20;;;-4.50;98.30;;;;;;4993908;28;20036;-71
2022/01/12 05:42:43;;;;;;;228.15;74.38;;;-4.50;98.10;;;;;;4976470;28;20109;-71
2022/01/12 05:45:10;;;;;;;229.60;78.70;;;-4.40;98.00;;;;;;5012387;28;20101;-72
2022/01/12 05:50:08;;;;;;;227.57;72.40;;;-4.40;98.00;;;;;;5014184;28;20038;-71
2022/01/12 05:52:36;;;;;;;262.80;75.57;;;-4.50;97.80;;;;;;5017036;28;20030;-72
2022/01/12 05:55:04;;;;;;;233.02;69.25;;;-4.50;97.60;;;;;;4999456;28;20022;-71
2022/01/12 05:57:33;;;;;;;241.32;76.10;;;-4.50;97.40;;;;;;5017350;28;20011;-72
2022/01/12 06:00:01;;;;;;;247.52;79.85;;;-4.60;97.50;;;;;;5018734;28;20029;-71
2022/01/12 06:02:27;;;;;;;254.77;77.25;;;-4.60;97.30;;;;;;5034860;28;20036;-71
2022/01/12 06:04:55;;;;;;;238.18;75.28;;;-4.70;97.30;;;;;;5018624;28;20072;-71
2022/01/12 06:07:23;;;;;;;238.88;71.25;;;-4.70;97.40;;;;;;5018525;28;20049;-71
2022/01/12 06:09:48;;;;;;;215.98;70.07;;;-4.70;97.40;;;;;;5005328;28;20018;-72
2022/01/12 06:12:16;;;;;;;242.65;74.72;;;-4.70;97.40;;;;;;4998882;28;20026;-71
2022/01/12 06:14:43;;;;;;;228.23;67.55;;;-4.70;97.40;;;;;;4998709;28;20022;-71
2022/01/12 06:17:10;;;;;;;198.07;67.10;;;-4.80;97.20;;;;;;5016300;28;20030;-70
2022/01/12 06:19:38;;;;;;;206.70;68.78;;;-4.80;97.20;;;;;;5016231;28;20054;-72
2022/01/12 06:22:05;;;;;;;214.52;69.03;;;-4.80;97.20;;;;;;5016319;28;20021;-71
2022/01/12 06:24:34;;;;;;;221.00;73.38;;;-4.80;97.30;;;;;;5015733;28;20041;-75
2022/01/12 06:27:03;;;;;;;242.48;74.93;;;-4.80;97.40;;;;;;4998105;28;20065;-75
2022/01/12 06:32:14;;;;;;;229.60;64.45;;;-4.90;96.90;;;;;;5001364;28;20037;-73
2022/01/12 06:34:40;;;;;;;218.00;68.18;;;-4.90;96.70;;;;;;4982259;28;20030;-74
2022/01/12 06:37:08;;;;;;;199.32;67.43;;;-5.00;96.60;;;;;;4998329;28;20026;-75
2022/01/12 06:39:36;;;;;;;290.75;77.97;;;-5.10;96.70;;;;;;5016108;28;20108;-73
2022/01/12 06:42:03;;;;;;;195.40;65.93;;;-5.10;96.80;;;;;;4982538;28;20152;-72
2022/01/12 06:44:29;;;;;;;269.42;70.93;;;-5.10;96.90;;;;;;4997600;28;20022;-74
2022/01/12 06:46:56;;;;;;;275.25;73.30;;;-5.20;97.00;;;;;;5015482;28;20053;-76
2022/01/12 06:49:22;;;;;;;234.48;69.40;;;-5.20;97.40;;;;;;5015946;28;20083;-72
2022/01/12 06:51:50;;;;;;;236.75;70.32;;;-5.20;97.30;;;;;;4998173;28;20034;-75
2022/01/12 06:54:22;;;;;;;255.57;71.32;;;-5.20;97.50;;;;;;5010892;28;20502;-72
2022/01/12 06:56:49;;;;;;;234.95;70.43;;;-5.20;97.60;;;;;;4994677;28;20463;-72
2022/01/12 06:59:16;;;;;;;204.02;70.20;;;-5.20;97.70;;;;;;4998377;28;20471;-75
2022/01/12 07:01:41;;;;;;;210.52;69.75;;;-5.20;97.80;;;;;;4995928;28;20104;-75
2022/01/12 07:04:10;;;;;;;245.70;73.47;;;-5.20;97.80;;;;;;5014008;28;20110;-73
2022/01/12 07:06:37;;;;;;;265.10;76.10;;;-5.20;97.70;;;;;;4996875;28;20057;-73
2022/01/12 07:09:04;;;;;;;251.32;74.93;;;-5.20;97.70;;;;;;5014503;28;20088;-75
2022/01/12 07:11:31;;;;;;;242.20;72.88;;;-5.20;97.70;;;;;;4997842;28;20034;-74
2022/01/12 07:13:58;;;;;;;241.05;70.80;;;-5.20;97.70;;;;;;5010994;28;20036;-74
2022/01/12 07:16:25;;;;;;;223.35;76.50;;;-5.20;97.60;;;;;;5029450;28;20410;-73
2022/01/12 07:18:58;;;;;;;242.50;71.82;;;-5.10;97.60;;;;;;5016653;28;20056;-73
2022/01/12 07:21:33;;;;;;;189.30;67.72;;;-5.10;97.50;;;;;;5034655;28;20025;-74
2022/01/12 07:24:00;;;;;;;222.43;67.60;;;-5.10;97.60;;;;;;4997909;28;20081;-75
2022/01/12 07:26:28;;;;;;;194.65;66.47;;;-5.00;97.70;;;;;;4977408;28;20471;-73
2022/01/12 07:28:56;;;;;;;209.10;68.40;;;-5.00;97.60;;;;;;5006538;28;20025;-75
2022/01/12 07:31:23;;;;;;;199.10;66.30;;;-5.00;97.40;;;;;;5033305;28;20021;-73
2022/01/12 07:33:56;;;;;;;211.23;69.22;;;-4.90;97.40;;;;;;5016714;28;20033;-73
2022/01/12 07:36:24;;;;;;;170.52;65.25;;;-4.90;97.20;;;;;;5016701;28;20397;-72
2022/01/12 07:38:55;;;;;;;191.20;73.18;;;-4.90;97.10;;;;;;5034964;28;20470;-72
2022/01/12 07:41:23;;;;;;;198.07;73.32;;;-4.80;97.20;;;;;;5034653;28;20025;-73
2022/01/12 07:43:50;;;;;;;202.35;71.40;;;-4.80;97.10;;;;;;5034611;28;20032;-74
2022/01/12 07:46:18;;;;;;;197.93;69.78;;;-4.70;97.10;;;;;;5034359;28;20101;-75
2022/01/12 07:48:46;;;;;;;186.00;69.40;;;-4.70;97.00;;;;;;5034385;28;20030;-78
2022/01/12 07:51:14;;;;;;;191.05;64.30;;;-4.60;96.80;;;;;;5033239;28;20029;-75
2022/01/12 07:53:40;;;;;;;193.45;65.28;;;-4.60;96.70;;;;;;5033564;28;20089;-76
2022/01/12 07:56:20;;;;;;;174.73;63.80;;;-4.60;96.50;;;;;;5033373;28;20470;-77
2022/01/12 07:58:47;;;;;;;183.37;65.53;;;-4.60;96.20;;;;;;5022164;28;20029;-73
2022/01/12 08:01:15;;;;;;;189.20;70.90;;;-4.50;96.20;;;;;;5034157;28;20057;-73
2022/01/12 08:03:43;;;;;;;172.27;62.65;;;-4.50;96.20;;;;;;5025217;28;20068;-73
2022/01/12 08:06:11;;;;;;;188.93;65.63;;;-4.40;96.10;;;;;;5032855;28;20033;-73
2022/01/12 08:08:38;;;;;;;180.68;65.93;;;-4.40;96.50;;;;;;5033879;28;20488;-74
2022/01/12 08:11:06;;;;;;;191.77;66.78;;;-4.20;96.40;;;;;;5034097;28;20108;-74
2022/01/12 08:13:34;;;;;;;166.40;64.78;;;-4.00;96.40;;;;;;5033266;28;20014;-75
2022/01/12 08:16:01;;;;;;;188.52;72.93;;;-3.80;96.30;;;;;;5028145;28;20382;-75
2022/01/12 08:18:27;;;;;;;187.02;71.53;;;-3.60;96.50;;;;;;5033813;28;20101;-72
2022/01/12 08:20:56;;;;;;;182.98;69.70;;;-3.40;96.50;;;;;;5026981;28;20036;-75
2022/01/12 08:23:24;;;;;;;178.13;67.47;;;-3.20;96.40;;;;;;4996148;28;20076;-75
2022/01/12 08:25:49;;;;;;;180.38;66.20;;;-3.10;95.90;;;;;;5026998;28;20053;-73
2022/01/12 08:28:17;;;;;;;170.07;62.40;;;-2.90;96.00;;;;;;5015849;28;20120;-73
2022/01/12 08:30:45;;;;;;;160.25;61.05;;;-2.70;95.60;;;;;;5014230;28;20030;-71
2022/01/12 08:33:11;;;;;;;162.88;66.65;;;-2.60;94.70;;;;;;4982578;28;20475;-72
2022/01/12 08:35:37;;;;;;;163.52;63.45;;;-2.60;94.20;;;;;;4992827;28;20029;-76
2022/01/12 08:38:04;;;;;;;168.25;66.78;;;-2.50;94.00;;;;;;4976371;28;20026;-74
2022/01/12 08:40:30;;;;;;;154.60;63.22;;;-2.50;93.80;;;;;;4993384;28;20077;-75
2022/01/12 08:42:56;;;;;;;165.90;64.97;;;-2.40;93.90;;;;;;4975466;28;20078;-75
2022/01/12 08:45:23;;;;;;;161.32;62.30;;;-2.40;94.20;;;;;;4976551;28;20030;-75
2022/01/12 08:47:50;;;;;;;177.15;66.00;;;-2.30;93.60;;;;;;5007617;28;20025;-76
2022/01/12 08:50:16;;;;;;;165.48;62.80;;;-2.30;93.50;;;;;;4996037;28;20443;-74
2022/01/12 08:52:47;;;;;;;181.05;67.93;;;-2.30;93.60;;;;;;4987512;28;20391;-74
2022/01/12 08:55:28;;;;;;;166.95;70.15;;;-2.20;93.50;;;;;;4967617;28;20049;-76
2022/01/12 08:57:58;;;;;;;175.20;66.50;;;-2.20;93.60;;;;;;5006735;28;20038;-75
2022/01/12 09:00:33;;;;;;;173.20;69.75;;;-2.10;93.70;;;;;;4976708;28;20093;-75
2022/01/12 09:03:01;;;;;;;186.15;67.38;;;-2.00;93.80;;;;;;4993898;28;20575;-73
2022/01/12 09:05:29;;;;;;;171.90;67.35;;;-1.90;93.70;;;;;;4993863;28;20367;-73
2022/01/12 09:07:56;;;;;;;172.93;66.32;;;-1.80;93.40;;;;;;4976834;28;20070;-73
2022/01/12 09:10:23;;;;;;;160.82;67.55;;;-1.70;93.40;;;;;;4997022;28;20049;-72
2022/01/12 09:12:49;;;;;;;170.95;66.75;;;-1.60;93.20;;;;;;4996426;28;20116;-73
2022/01/12 09:15:22;;;;;;;170.70;66.97;;;-1.50;93.20;;;;;;4979729;28;20030;-72
2022/01/12 09:17:50;;;;;;;183.68;63.15;;;-1.50;93.00;;;;;;5013729;28;20033;-75
2022/01/12 09:20:19;;;;;;;153.10;60.10;;;-1.40;92.40;;;;;;4995838;28;20079;-75
2022/01/12 09:22:45;;;;;;;147.20;62.72;;;-1.40;92.10;;;;;;5011756;28;20018;-75
2022/01/12 09:25:12;;;;;;;149.55;62.45;;;-1.30;92.40;;;;;;5014329;28;20100;-72
2022/01/12 09:27:39;;;;;;;141.20;57.97;;;-1.40;91.70;;;;;;5017847;28;20018;-74
2022/01/12 09:30:09;;;;;;;149.52;60.13;;;-1.30;92.00;;;;;;4999875;28;20404;-75
2022/01/12 09:32:34;;;;;;;153.40;60.80;;;-1.30;92.30;;;;;;4983703;28;20030;-77
2022/01/12 09:35:01;;;;;;;159.45;60.25;;;-1.20;92.20;;;;;;5017448;28;20026;-75
2022/01/12 09:37:29;;;;;;;137.70;58.63;;;-1.20;92.10;;;;;;5017240;28;20033;-71
2022/01/12 09:39:57;;;;;;;138.63;58.25;;;-1.10;92.00;;;;;;5017343;28;20467;-73
2022/01/12 09:42:24;;;;;;;138.45;57.28;;;-1.00;92.00;;;;;;5015911;28;20026;-74
2022/01/12 09:44:51;;;;;;;145.10;61.08;;;-0.90;91.80;;;;;;5017137;28;20022;-73
2022/01/12 09:47:18;;;;;;;143.18;57.67;;;-0.90;91.90;;;;;;5017012;28;20045;-73
2022/01/12 09:49:46;;;;;;;127.40;52.00;;;-0.80;92.10;;;;;;4999291;28;20037;-72
2022/01/12 09:52:13;;;;;;;126.40;53.47;;;-0.70;91.50;;;;;;4999117;28;20391;-72
2022/01/12 09:54:40;;;;;;;130.18;54.15;;;-0.60;91.60;;;;;;5017022;28;20379;-78
2022/01/12 09:57:21;;;;;;;139.40;55.85;;;-0.50;91.80;;;;;;4983104;28;20120;-77
2022/01/12 09:59:48;;;;;;;126.78;53.55;;;-0.30;91.80;;;;;;4999063;28;20484;-70
2022/01/12 10:02:17;;;;;;;119.97;50.08;;;-0.10;91.80;;;;;;4982914;28;20116;-73
2022/01/12 10:04:44;;;;;;;130.90;55.30;;;0.00;91.10;;;;;;5016882;28;20030;-71
2022/01/12 10:07:11;;;;;;;121.57;52.28;;;0.10;90.80;;;;;;4999240;28;20030;-75
2022/01/12 10:09:45;;;;;;;106.53;45.53;;;0.10;90.70;;;;;;5016834;28;20101;-75
2022/01/12 10:12:14;;;;;;;111.78;49.88;;;0.20;90.70;;;;;;4998707;28;20022;-74
2022/01/12 10:14:59;;;;;;;111.35;48.03;;;0.20;90.40;;;;;;5016317;28;20029;-77
2022/01/12 10:17:44;;;;;;;104.55;44.55;;;0.20;90.20;;;;;;5016913;28;20084;-77
2022/01/12 10:20:22;;;;;;;107.13;41.47;;;0.20;90.20;;;;;;4982060;28;20030;-76
2022/01/12 10:23:11;;;;;;;97.57;42.10;;;0.20;90.50;;;;;;5036091;28;20017;-74
2022/01/12 10:25:39;;;;;;;101.50;41.17;;;0.10;90.70;;;;;;4994814;28;20078;-73
2022/01/12 10:28:17;;;;;;;93.22;40.05;;;0.10;90.90;;;;;;4975849;28;20551;-73
2022/01/12 10:30:58;;;;;;;95.63;41.38;;;0.20;91.10;;;;;;4977100;28;20026;-74
2022/01/12 10:33:26;;;;;;;82.88;36.35;;;0.20;91.10;;;;;;4977100;28;20029;-74
2022/01/12 10:36:00;;;;;;;96.60;39.08;;;0.20;91.30;;;;;;4977220;28;20018;-73
2022/01/12 10:38:41;;;;;;;91.18;36.75;;;0.30;91.10;;;;;;4959600;28;20027;-76
2022/01/12 10:41:08;;;;;;;84.72;34.60;;;0.30;91.20;;;;;;4976698;28;20038;-77
2022/01/12 10:43:52;;;;;;;74.38;32.90;;;0.30;90.80;;;;;;4976915;28;20035;-74
2022/01/12 10:46:20;;;;;;;85.53;36.35;;;0.40;91.00;;;;;;4976675;28;20031;-74
2022/01/12 10:48:51;;;;;;;81.95;33.53;;;0.40;91.40;;;;;;4975433;28;20391;-73
2022/01/12 10:51:28;;;;;;;67.78;31.80;;;0.40;91.50;;;;;;4980249;28;20480;-74
2022/01/12 10:54:08;;;;;;;79.20;33.45;;;0.50;91.20;;;;;;4995316;28;20030;-74
2022/01/12 10:56:53;;;;;;;66.75;28.85;;;0.50;91.20;;;;;;4993861;28;20036;-77
2022/01/12 10:59:22;;;;;;;71.68;29.33;;;0.50;91.10;;;;;;4994767;28;20061;-75
2022/01/12 11:01:50;;;;;;;67.40;27.65;;;0.50;91.10;;;;;;4977449;28;20058;-74
2022/01/12 11:04:25;;;;;;;60.45;27.98;;;0.60;91.00;;;;;;4994495;28;20479;-73
2022/01/12 11:06:53;;;;;;;68.00;28.25;;;0.60;90.80;;;;;;4994559;28;20030;-77
2022/01/12 11:09:19;;;;;;;57.10;25.42;;;0.70;90.80;;;;;;4994369;28;20026;-72
2022/01/12 11:11:46;;;;;;;56.47;25.30;;;0.70;90.30;;;;;;4994281;28;20137;-75
2022/01/12 11:14:14;;;;;;;54.92;23.52;;;0.90;90.70;;;;;;4994047;28;20023;-74
2022/01/12 11:16:42;;;;;;;53.55;24.65;;;1.00;90.10;;;;;;4993818;28;20485;-76
2022/01/12 11:19:23;;;;;;;60.17;27.33;;;1.10;89.20;;;;;;4995152;28;20019;-74
2022/01/12 11:22:03;;;;;;;61.30;25.13;;;1.30;90.10;;;;;;4995542;28;20105;-74
2022/01/12 11:24:32;;;;;;;56.40;25.52;;;1.50;88.90;;;;;;4998532;28;20038;-74
2022/01/12 11:27:03;;;;;;;58.55;25.38;;;1.60;86.70;;;;;;4997073;28;20057;-72
2022/01/12 11:29:35;;;;;;;58.50;23.80;;;1.60;86.50;;;;;;4998445;28;20022;-77
2022/01/12 11:32:20;;;;;;;51.60;24.08;;;1.70;86.60;;;;;;5013603;28;20030;-75
2022/01/12 11:34:58;;;;;;;54.15;27.23;;;1.80;85.00;;;;;;4997414;28;20025;-75
2022/01/12 11:37:26;;;;;;;54.85;24.45;;;1.90;84.30;;;;;;5014195;28;20026;-82
2022/01/12 11:39:53;;;;;;;59.47;27.02;;;2.00;85.60;;;;;;5014498;28;20121;-77
2022/01/12 11:42:19;;;;;;;49.85;25.77;;;2.10;83.70;;;;;;5003093;28;20373;-77
2022/01/12 11:44:46;;;;;;;63.83;28.83;;;2.20;82.50;;;;;;5015972;28;20030;-78
2022/01/12 11:47:22;;;;;;;61.58;31.10;;;2.20;81.90;;;;;;4997944;28;20100;-79
2022/01/12 11:49:52;;;;;;;66.28;30.70;;;2.20;82.30;;;;;;4996954;28;20088;-79
2022/01/12 11:52:26;;;;;;;75.80;34.40;;;2.20;82.00;;;;;;5014250;28;20466;-77
2022/01/12 11:55:12;;;;;;;81.82;33.40;;;2.20;81.70;;;;;;4996822;28;20049;-74
2022/01/12 11:57:42;;;;;;;71.75;31.00;;;2.20;82.60;;;;;;4996628;28;20026;-77
2022/01/12 12:00:10;;;;;;;63.70;28.48;;;2.20;82.60;;;;;;5012755;28;20113;-77
2022/01/12 12:02:37;;;;;;;60.13;28.02;;;2.20;81.10;;;;;;5014044;28;20026;-74
2022/01/12 12:05:15;;;;;;;62.35;29.20;;;2.10;81.50;;;;;;4996488;28;20025;-75
2022/01/12 12:08:04;;;;;;;49.70;24.58;;;2.10;81.50;;;;;;5014355;28;20053;-74
2022/01/12 12:10:34;;;;;;;59.25;25.58;;;2.10;82.60;;;;;;5008703;28;20034;-74
2022/01/12 12:13:02;;;;;;;51.15;23.67;;;2.10;82.30;;;;;;4961663;28;20475;-75
2022/01/12 12:15:29;;;;;;;60.20;25.55;;;2.10;82.00;;;;;;4977177;28;20026;-77
2022/01/12 12:18:04;;;;;;;58.03;26.35;;;2.00;82.00;;;;;;4992828;28;20387;-75
2022/01/12 12:20:44;;;;;;;53.10;24.50;;;1.90;82.80;;;;;;4993080;28;20137;-76
2022/01/12 12:23:12;;;;;;;55.80;23.45;;;1.90;82.80;;;;;;4994210;28;20060;-76
2022/01/12 12:25:39;;;;;;;52.45;22.55;;;1.90;82.70;;;;;;4992840;28;20117;-76
2022/01/12 12:28:14;;;;;;;42.67;21.67;;;1.90;83.10;;;;;;4994192;28;20030;-76
2022/01/12 12:30:40;;;;;;;50.65;22.90;;;1.90;83.40;;;;;;4993121;28;20081;-74
2022/01/12 12:33:11;;;;;;;41.85;20.77;;;1.90;83.10;;;;;;5005721;28;20497;-75
2022/01/12 12:35:40;;;;;;;44.17;21.83;;;1.80;82.00;;;;;;4996745;28;20395;-74
2022/01/12 12:38:11;;;;;;;45.90;17.08;;;1.70;82.50;;;;;;5013955;28;20447;-75
2022/01/12 12:40:41;;;;;;;44.00;19.42;;;1.70;82.30;;;;;;4995959;28;20029;-77
2022/01/12 12:43:13;;;;;;;36.47;18.35;;;1.60;82.40;;;;;;4996972;28;20474;-75
2022/01/12 12:45:44;;;;;;;36.45;16.65;;;1.60;82.70;;;;;;4996618;28;20054;-77
2022/01/12 12:48:16;;;;;;;36.97;17.40;;;1.50;82.00;;;;;;5015875;28;20025;-76
2022/01/12 12:50:43;;;;;;;41.55;18.10;;;1.50;82.60;;;;;;4996589;28;20289;-74
2022/01/12 12:53:11;;;;;;;37.83;18.27;;;1.40;83.50;;;;;;5008406;28;20022;-74
2022/01/12 12:55:44;;;;;;;39.65;18.48;;;1.40;83.60;;;;;;5001913;28;20029;-78
2022/01/12 12:58:13;;;;;;;38.63;17.75;;;1.50;84.00;;;;;;4996320;28;20045;-77
2022/01/12 13:00:41;;;;;;;41.80;18.25;;;1.50;83.70;;;;;;4978289;28;20131;-77
2022/01/12 13:03:08;;;;;;;41.10;17.88;;;1.50;83.10;;;;;;4977790;28;20046;-76
2022/01/12 13:05:41;;;;;;;45.28;19.02;;;1.50;83.10;;;;;;4976195;28;20041;-76
2022/01/12 13:08:07;;;;;;;42.17;19.38;;;1.60;83.30;;;;;;4974354;28;20464;-78
2022/01/12 13:10:34;;;;;;;35.95;17.60;;;1.70;83.20;;;;;;4974705;28;20030;-77
2022/01/12 13:13:05;;;;;;;37.40;19.33;;;1.70;82.90;;;;;;4991902;28;20072;-77
2022/01/12 13:15:32;;;;;;;42.83;17.73;;;1.80;82.80;;;;;;4975021;28;20177;-77
2022/01/12 13:18:08;;;;;;;39.42;18.08;;;1.80;82.10;;;;;;4974637;28;20046;-78
2022/01/12 13:23:23;;;;;;;40.20;19.50;;;2.00;82.90;;;;;;4992199;28;20533;-77
2022/01/12 13:25:52;;;;;;;39.47;20.10;;;2.10;82.80;;;;;;4974236;28;20123;-77
2022/01/12 13:28:19;;;;;;;42.42;18.25;;;2.20;81.70;;;;;;4991199;28;20058;-75
2022/01/12 13:30:57;;;;;;;38.30;19.20;;;2.30;81.60;;;;;;4990990;28;20046;-75
2022/01/12 13:33:36;;;;;;;35.55;18.95;;;2.30;81.00;;;;;;4991140;28;20025;-77
2022/01/12 13:36:12;;;;;;;45.92;20.63;;;2.40;80.80;;;;;;4973880;28;20022;-75
2022/01/12 13:38:39;;;;;;;34.38;17.35;;;2.40;80.90;;;;;;4975525;28;20342;-76
2022/01/12 13:41:09;;;;;;;40.13;18.23;;;2.40;80.90;;;;;;4976081;28;20034;-78
2022/01/12 13:43:36;;;;;;;36.37;17.83;;;2.50;80.30;;;;;;4993684;28;20030;-78
2022/01/12 13:46:14;;;;;;;41.80;18.20;;;2.50;79.90;;;;;;4976235;28;20030;-75
2022/01/12 13:49:02;;;;;;;41.03;17.88;;;2.40;80.30;;;;;;4975986;28;20027;-77
2022/01/12 13:51:28;;;;;;;36.47;17.60;;;2.30;80.30;;;;;;4962062;28;20061;-76
2022/01/12 13:54:04;;;;;;;35.15;15.60;;;2.20;81.10;;;;;;4992074;28;20054;-78
2022/01/12 13:56:41;;;;;;;38.75;18.52;;;2.20;81.80;;;;;;4992221;28;20386;-78
2022/01/12 13:59:07;;;;;;;34.13;17.27;;;2.20;81.90;;;;;;4974060;28;20375;-76
2022/01/12 14:01:37;;;;;;;36.85;17.92;;;2.10;82.20;;;;;;4991548;28;20454;-78
2022/01/12 14:06:46;;;;;;;36.25;18.52;;;2.10;82.50;;;;;;4992756;28;20038;-75
2022/01/12 14:09:39;;;;;;;39.90;19.55;;;2.00;82.80;;;;;;5019003;28;20022;-77
2022/01/12 14:12:17;;;;;;;41.35;19.60;;;2.00;83.30;;;;;;5014211;28;20087;-80
2022/01/12 14:15:05;;;;;;;38.33;19.05;;;2.00;83.70;;;;;;5000289;28;20378;-75
2022/01/12 14:17:37;;;;;;;37.97;18.60;;;2.00;84.10;;;;;;5017089;28;20026;-76
2022/01/12 14:20:05;;;;;;;43.33;20.88;;;2.00;84.50;;;;;;5017127;28;20029;-77
2022/01/12 14:22:52;;;;;;;44.58;22.02;;;2.00;84.20;;;;;;5015478;28;20034;-76
2022/01/12 14:25:21;;;;;;;43.15;19.42;;;2.10;84.40;;;;;;5016101;28;20125;-75
2022/01/12 14:27:57;;;;;;;50.13;20.50;;;2.00;84.70;;;;;;5014911;28;20045;-75
2022/01/12 14:30:25;;;;;;;43.30;20.92;;;2.00;85.20;;;;;;5015369;28;20026;-75